createdAt,value
2018-07-09T00:01:04.188Z,8.00
2018-07-09T00:03:31.724Z,8.00
2018-07-09T00:05:59.283Z,7.80
2018-07-09T00:08:26.792Z,8.33
2018-07-09T00:10:59.574Z,7.70
2018-07-09T00:13:27.683Z,7.70
2018-07-09T00:15:55.579Z,8.40
2018-07-09T00:18:23.207Z,10.27
2018-07-09T00:20:51.138Z,8.20
2018-07-09T00:23:18.732Z,7.87
2018-07-09T00:25:47.350Z,9.17
2018-07-09T00:28:15.727Z,7.93
2018-07-09T00:30:43.251Z,8.20
2018-07-09T00:33:10.768Z,8.70
2018-07-09T00:35:38.804Z,8.53
2018-07-09T00:38:06.401Z,8.50
2018-07-09T00:40:33.977Z,8.70
2018-07-09T00:43:01.548Z,8.07
2018-07-09T00:45:29.082Z,8.70
2018-07-09T00:47:56.767Z,9.20
2018-07-09T00:50:24.355Z,8.73
2018-07-09T00:52:52.073Z,8.20
2018-07-09T00:55:19.653Z,9.00
2018-07-09T00:57:47.183Z,9.53
2018-07-09T01:00:14.665Z,7.50
2018-07-09T01:02:42.192Z,9.57
2018-07-09T01:05:09.719Z,7.97
2018-07-09T01:07:37.432Z,8.17
2018-07-09T01:10:05.104Z,10.93
2018-07-09T01:12:32.739Z,8.33
2018-07-09T01:15:01.376Z,8.90
2018-07-09T01:17:29.003Z,9.37
2018-07-09T01:19:56.733Z,10.03
2018-07-09T01:22:24.422Z,9.23
2018-07-09T01:24:52.281Z,8.80
2018-07-09T01:27:19.760Z,9.03
2018-07-09T01:29:47.344Z,8.60
2018-07-09T01:32:15.112Z,9.03
2018-07-09T01:34:42.622Z,9.40
2018-07-09T01:37:10.072Z,8.20
2018-07-09T01:39:37.627Z,7.60
2018-07-09T01:42:05.292Z,7.67
2018-07-09T01:44:32.795Z,8.13
2018-07-09T01:47:00.224Z,8.60
2018-07-09T01:49:27.681Z,8.47
2018-07-09T01:51:55.171Z,9.60
2018-07-09T01:54:22.773Z,7.40
2018-07-09T01:56:50.520Z,8.80
2018-07-09T01:59:17.950Z,7.20
2018-07-09T02:01:45.432Z,8.30
2018-07-09T02:04:12.910Z,7.97
2018-07-09T02:06:40.456Z,8.57
2018-07-09T02:09:08.567Z,8.53
2018-07-09T02:11:36.538Z,8.00
2018-07-09T02:14:04.084Z,8.07
2018-07-09T02:16:31.552Z,8.87
2018-07-09T02:18:59.068Z,9.10
2018-07-09T02:21:26.767Z,8.50
2018-07-09T02:23:54.519Z,8.63
2018-07-09T02:26:22.058Z,10.30
2018-07-09T02:28:49.487Z,7.87
2018-07-09T02:31:16.920Z,9.53
2018-07-09T02:33:44.344Z,9.20
2018-07-09T02:36:11.813Z,8.97
2018-07-09T02:38:39.312Z,9.20
2018-07-09T02:41:06.817Z,7.83
2018-07-09T02:43:34.287Z,8.40
2018-07-09T02:46:01.874Z,9.03
2018-07-09T02:48:29.468Z,9.47
2018-07-09T02:50:56.948Z,8.60
2018-07-09T02:53:24.392Z,9.80
2018-07-09T02:55:51.895Z,8.83
2018-07-09T02:58:19.384Z,9.47
2018-07-09T03:00:46.932Z,11.60
2018-07-09T03:03:14.358Z,9.23
2018-07-09T03:05:41.792Z,9.97
2018-07-09T03:08:09.364Z,10.83
2018-07-09T03:10:36.943Z,10.00
2018-07-09T03:13:04.387Z,10.97
2018-07-09T03:15:32.022Z,10.10
2018-07-09T03:17:59.488Z,11.23
2018-07-09T03:20:26.952Z,11.03
2018-07-09T03:22:54.578Z,11.13
2018-07-09T03:25:22.059Z,10.10
2018-07-09T03:27:49.620Z,10.30
2018-07-09T03:30:17.139Z,11.23
2018-07-09T03:32:44.616Z,10.50
2018-07-09T03:35:12.099Z,11.57
2018-07-09T03:37:39.617Z,10.47
2018-07-09T03:40:07.212Z,10.60
2018-07-09T03:42:34.697Z,10.60
2018-07-09T03:45:02.420Z,10.50
2018-07-09T03:47:29.899Z,11.10
2018-07-09T03:49:57.359Z,10.77
2018-07-09T03:52:24.944Z,10.53
2018-07-09T03:54:52.437Z,11.00
2018-07-09T03:57:19.901Z,11.83
2018-07-09T03:59:47.393Z,10.60
2018-07-09T04:02:14.938Z,10.60
2018-07-09T04:04:42.539Z,11.43
2018-07-09T04:07:09.989Z,11.80
2018-07-09T04:09:37.536Z,11.67
2018-07-09T04:12:04.988Z,10.93
2018-07-09T04:14:32.481Z,11.50
2018-07-09T04:16:59.879Z,12.30
2018-07-09T04:19:27.328Z,10.77
2018-07-09T04:21:55.307Z,11.23
2018-07-09T04:24:22.896Z,13.00
2018-07-09T04:26:50.466Z,9.67
2018-07-09T04:29:17.955Z,11.67
2018-07-09T04:31:45.439Z,11.57
2018-07-09T04:34:13.235Z,10.60
2018-07-09T04:36:40.634Z,10.60
2018-07-09T04:39:08.531Z,10.90
2018-07-09T04:41:36.263Z,12.10
2018-07-09T04:44:03.771Z,12.00
2018-07-09T04:46:31.282Z,12.93
2018-07-09T04:48:59.447Z,11.80
2018-07-09T04:51:26.940Z,13.33
2018-07-09T04:53:54.519Z,11.53
2018-07-09T04:56:22.148Z,13.00
2018-07-09T04:58:49.658Z,12.73
2018-07-09T05:01:17.140Z,11.37
2018-07-09T05:03:44.647Z,11.67
2018-07-09T05:06:12.136Z,12.20
2018-07-09T05:08:39.621Z,12.00
2018-07-09T05:11:07.332Z,11.60
2018-07-09T05:13:34.831Z,14.57
2018-07-09T05:16:02.548Z,11.70
2018-07-09T05:18:30.062Z,10.63
2018-07-09T05:20:57.631Z,11.30
2018-07-09T05:23:25.019Z,11.37
2018-07-09T05:25:52.456Z,11.50
2018-07-09T05:28:19.892Z,11.93
2018-07-09T05:30:47.380Z,10.00
2018-07-09T05:33:14.855Z,13.60
2018-07-09T05:35:42.316Z,10.63
2018-07-09T05:38:09.978Z,13.67
2018-07-09T05:40:37.539Z,10.00
2018-07-09T05:43:05.262Z,13.40
2018-07-09T05:45:32.720Z,11.13
2018-07-09T05:48:00.295Z,12.20
2018-07-09T05:50:28.104Z,12.77
2018-07-09T05:52:55.703Z,12.20
2018-07-09T05:55:23.171Z,10.53
2018-07-09T05:57:50.676Z,12.20
2018-07-09T06:00:18.140Z,12.47
2018-07-09T06:02:45.695Z,12.90
2018-07-09T06:05:13.227Z,13.00
2018-07-09T06:07:40.711Z,12.27
2018-07-09T06:10:08.346Z,12.53
2018-07-09T06:12:35.865Z,12.60
2018-07-09T06:15:03.408Z,15.03
2018-07-09T06:17:30.937Z,9.93
2018-07-09T06:19:58.729Z,8.50
2018-07-09T06:22:26.294Z,10.97
2018-07-09T06:24:53.843Z,13.20
2018-07-09T06:27:21.348Z,12.87
2018-07-09T06:29:48.863Z,12.90
2018-07-09T06:32:16.756Z,12.03
2018-07-09T06:34:44.505Z,13.40
2018-07-09T06:37:12.022Z,12.33
2018-07-09T06:39:39.480Z,9.40
2018-07-09T06:42:10.944Z,12.40
2018-07-09T06:44:38.480Z,12.17
2018-07-09T06:47:05.973Z,12.90
2018-07-09T06:49:33.500Z,13.00
2018-07-09T06:52:01.051Z,13.17
2018-07-09T06:54:28.543Z,12.60
2018-07-09T06:56:56.040Z,13.40
2018-07-09T06:59:23.537Z,11.33
2018-07-09T07:01:51.091Z,12.53
2018-07-09T07:04:18.594Z,13.07
2018-07-09T07:06:46.224Z,14.50
2018-07-09T07:09:14.008Z,14.10
2018-07-09T07:11:41.424Z,14.30
2018-07-09T07:14:08.988Z,13.27
2018-07-09T07:16:36.549Z,12.97
2018-07-09T07:19:04.160Z,11.47
2018-07-09T07:21:31.640Z,11.27
2018-07-09T07:23:59.163Z,13.43
2018-07-09T07:26:26.658Z,12.57
2018-07-09T07:28:54.191Z,12.77
2018-07-09T07:31:21.827Z,12.50
2018-07-09T07:33:49.385Z,13.60
2018-07-09T07:36:17.132Z,14.83
2018-07-09T07:38:45.018Z,11.70
2018-07-09T07:41:12.492Z,11.23
2018-07-09T07:43:41.096Z,11.50
2018-07-09T07:46:08.675Z,11.43
2018-07-09T07:48:36.339Z,10.60
2018-07-09T07:51:03.886Z,10.70
2018-07-09T07:53:31.364Z,10.27
2018-07-09T07:55:59.109Z,11.10
2018-07-09T07:58:26.531Z,12.10
2018-07-09T08:00:54.296Z,10.23
2018-07-09T08:03:21.830Z,9.50
2018-07-09T08:05:49.584Z,10.50
2018-07-09T08:08:17.306Z,9.97
2018-07-09T08:10:44.869Z,10.00
2018-07-09T08:13:27.999Z,10.57
2018-07-09T08:15:40.098Z,9.17
2018-07-09T08:18:07.567Z,8.80
2018-07-09T08:20:35.090Z,9.60
2018-07-09T08:23:03.769Z,8.47
2018-07-09T08:25:31.347Z,8.03
2018-07-09T08:27:58.904Z,8.23
2018-07-09T08:30:26.427Z,7.60
2018-07-09T08:32:54.101Z,7.33
2018-07-09T08:35:21.620Z,6.77
2018-07-09T08:37:49.253Z,7.93
2018-07-09T08:40:16.804Z,7.73
2018-07-09T08:42:44.336Z,7.10
2018-07-09T08:45:12.344Z,6.83
2018-07-09T08:47:39.871Z,7.53
2018-07-09T08:50:07.356Z,8.47
2018-07-09T08:52:34.919Z,7.63
2018-07-09T08:55:02.467Z,7.00
2018-07-09T08:57:30.013Z,7.10
2018-07-09T08:59:57.695Z,7.03
2018-07-09T09:02:25.237Z,7.27
2018-07-09T09:04:52.734Z,6.87
2018-07-09T09:07:20.688Z,6.33
2018-07-09T09:09:48.159Z,5.93
2018-07-09T09:12:15.903Z,5.50
2018-07-09T09:14:43.414Z,6.03
2018-07-09T09:17:10.866Z,5.90
2018-07-09T09:19:38.379Z,6.53
2018-07-09T09:22:06.219Z,6.10
2018-07-09T09:24:33.734Z,5.80
2018-07-09T09:27:01.213Z,6.20
2018-07-09T09:29:29.141Z,5.70
2018-07-09T09:31:56.686Z,5.30
2018-07-09T09:34:24.252Z,4.30
2018-07-09T09:36:51.872Z,4.40
2018-07-09T09:39:19.460Z,4.40
2018-07-09T09:41:46.991Z,5.30
2018-07-09T09:44:14.480Z,3.90
2018-07-09T09:46:42.312Z,4.00
2018-07-09T09:49:09.784Z,3.97
2018-07-09T09:51:37.262Z,3.90
2018-07-09T09:54:04.815Z,4.10
2018-07-09T09:56:32.307Z,4.93
2018-07-09T09:58:59.792Z,3.90
2018-07-09T10:01:27.404Z,3.53
2018-07-09T10:03:54.924Z,3.63
2018-07-09T10:06:22.393Z,4.17
2018-07-09T10:08:49.928Z,3.50
2018-07-09T10:11:17.412Z,3.30
2018-07-09T10:13:44.983Z,3.33
2018-07-09T10:16:12.490Z,3.80
2018-07-09T10:18:39.979Z,3.83
2018-07-09T10:21:07.591Z,3.77
2018-07-09T10:23:35.192Z,3.53
2018-07-09T10:26:02.804Z,3.70
2018-07-09T10:28:30.303Z,3.90
2018-07-09T10:30:57.943Z,4.60
2018-07-09T10:33:25.760Z,4.40
2018-07-09T10:35:53.355Z,3.30
2018-07-09T10:38:20.913Z,3.70
2018-07-09T10:40:48.449Z,3.47
2018-07-09T10:43:16.105Z,3.20
2018-07-09T10:45:43.572Z,3.20
2018-07-09T10:48:11.124Z,3.73
2018-07-09T10:50:38.667Z,3.07
2018-07-09T10:53:06.227Z,3.23
2018-07-09T10:55:33.713Z,3.40
2018-07-09T10:58:01.307Z,2.90
2018-07-09T11:00:29.242Z,3.23
2018-07-09T11:02:56.706Z,3.50
2018-07-09T11:05:24.265Z,3.17
2018-07-09T11:07:51.860Z,4.03
2018-07-09T11:10:19.838Z,3.30
2018-07-09T11:12:47.281Z,2.50
2018-07-09T11:15:14.794Z,2.70
2018-07-09T11:17:42.339Z,2.97
2018-07-09T11:20:09.820Z,2.57
2018-07-09T11:22:37.320Z,2.97
2018-07-09T11:25:04.843Z,2.87
2018-07-09T11:27:32.352Z,2.70
2018-07-09T11:29:59.870Z,2.93
2018-07-09T11:32:27.843Z,2.40
2018-07-09T11:34:55.468Z,2.57
2018-07-09T11:37:23.140Z,2.80
2018-07-09T11:39:50.660Z,2.60
2018-07-09T11:42:18.197Z,2.40
2018-07-09T11:44:45.756Z,2.40
2018-07-09T11:47:13.305Z,2.37
2018-07-09T11:49:40.935Z,2.20
2018-07-09T11:52:08.572Z,2.37
2018-07-09T11:54:36.261Z,1.83
2018-07-09T11:57:03.948Z,2.30
2018-07-09T11:59:31.711Z,2.00
2018-07-09T12:01:59.400Z,2.30
2018-07-09T12:04:26.832Z,1.63
2018-07-09T12:06:54.327Z,2.40
2018-07-09T12:09:21.920Z,2.30
2018-07-09T12:11:49.521Z,2.10
2018-07-09T12:14:17.056Z,2.17
2018-07-09T12:16:44.558Z,2.23
2018-07-09T12:19:12.063Z,1.90
2018-07-09T12:21:39.622Z,3.90
2018-07-09T12:24:07.156Z,1.80
2018-07-09T12:26:34.632Z,1.97
2018-07-09T12:29:02.319Z,2.47
2018-07-09T12:31:29.832Z,2.20
2018-07-09T12:33:57.525Z,2.47
2018-07-09T12:36:25.162Z,2.20
2018-07-09T12:38:52.668Z,2.47
2018-07-09T12:41:20.281Z,2.13
2018-07-09T12:43:47.870Z,2.10
2018-07-09T12:46:15.532Z,2.40
2018-07-09T12:48:43.107Z,2.47
2018-07-09T12:51:10.716Z,2.50
2018-07-09T12:53:38.460Z,2.47
2018-07-09T12:56:06.086Z,2.33
2018-07-09T12:58:33.723Z,2.00
2018-07-09T13:01:01.488Z,2.60
2018-07-09T13:03:29.343Z,2.10
2018-07-09T13:05:57.023Z,2.73
2018-07-09T13:08:24.647Z,2.03
2018-07-09T13:10:52.205Z,2.17
2018-07-09T13:13:19.749Z,2.00
2018-07-09T13:15:47.340Z,3.43
2018-07-09T13:18:14.995Z,2.23
2018-07-09T13:20:42.574Z,2.13
2018-07-09T13:23:10.313Z,3.40
2018-07-09T13:25:37.911Z,2.17
2018-07-09T13:28:05.556Z,2.77
2018-07-09T13:30:33.223Z,2.37
2018-07-09T13:33:01.250Z,2.30
2018-07-09T13:35:29.084Z,3.90
2018-07-09T13:37:56.792Z,2.57
2018-07-09T13:40:26.322Z,2.23
2018-07-09T13:42:54.513Z,1.97
2018-07-09T13:45:22.115Z,2.30
2018-07-09T13:47:49.871Z,2.20
2018-07-09T13:50:17.831Z,2.27
2018-07-09T13:52:45.507Z,2.00
2018-07-09T13:55:13.142Z,2.80
2018-07-09T13:57:40.941Z,2.20
2018-07-09T14:00:08.637Z,2.07
2018-07-09T14:02:36.167Z,2.97
2018-07-09T14:05:03.936Z,2.97
2018-07-09T14:07:31.522Z,2.10
2018-07-09T14:09:59.104Z,2.77
2018-07-09T14:12:27.491Z,2.20
2018-07-09T14:14:57.071Z,2.50
2018-07-09T14:17:25.132Z,2.87
2018-07-09T14:20:55.280Z,2.87
2018-07-09T14:23:22.903Z,2.70
2018-07-09T14:25:50.667Z,3.07
2018-07-09T14:28:18.247Z,2.87
2018-07-09T14:30:45.826Z,2.53
2018-07-09T14:33:13.510Z,2.47
2018-07-09T14:35:41.127Z,2.30
2018-07-09T14:38:08.763Z,2.70
2018-07-09T14:40:36.391Z,3.03
2018-07-09T14:43:04.057Z,2.67
2018-07-09T14:45:31.731Z,2.20
2018-07-09T14:47:59.342Z,3.90
2018-07-09T14:50:27.057Z,2.00
2018-07-09T14:52:54.708Z,2.40
2018-07-09T14:55:22.344Z,2.90
2018-07-09T14:57:50.037Z,2.77
2018-07-09T15:00:17.644Z,2.97
2018-07-09T15:02:45.229Z,2.63
2018-07-09T15:05:12.826Z,2.80
2018-07-09T15:07:40.711Z,2.73
2018-07-09T15:10:08.395Z,2.90
2018-07-09T15:12:36.021Z,2.37
2018-07-09T15:15:03.730Z,2.70
2018-07-09T15:17:31.419Z,2.70
2018-07-09T15:19:59.057Z,2.83
2018-07-09T15:22:26.655Z,2.70
2018-07-09T15:24:54.206Z,2.70
2018-07-09T15:27:21.901Z,2.70
2018-07-09T15:29:49.520Z,2.23
2018-07-09T15:32:27.294Z,1.97
2018-07-09T15:34:55.134Z,1.73
2018-07-09T15:37:22.689Z,2.10
2018-07-09T15:39:50.567Z,2.07
2018-07-09T15:42:18.129Z,1.73
2018-07-09T15:44:45.851Z,1.67
2018-07-09T15:47:13.474Z,2.37
2018-07-09T15:49:41.642Z,1.90
2018-07-09T15:52:09.381Z,1.93
2018-07-09T15:54:37.143Z,2.20
2018-07-09T15:57:04.922Z,2.70
2018-07-09T15:59:32.716Z,2.47
2018-07-09T16:02:00.307Z,2.47
2018-07-09T16:04:27.948Z,2.10
2018-07-09T16:06:55.590Z,2.43
2018-07-09T16:09:23.242Z,2.27
2018-07-09T16:11:50.867Z,2.00
2018-07-09T16:14:18.559Z,2.60
2018-07-09T16:16:46.096Z,2.30
2018-07-09T16:19:13.776Z,2.60
2018-07-09T16:21:41.415Z,2.60
2018-07-09T16:24:09.303Z,2.03
2018-07-09T16:26:36.766Z,2.90
2018-07-09T16:29:04.470Z,3.40
2018-07-09T16:31:32.145Z,2.40
2018-07-09T16:33:59.695Z,2.67
2018-07-09T16:36:27.389Z,2.70
2018-07-09T16:38:55.073Z,2.50
2018-07-09T16:41:22.667Z,2.50
2018-07-09T16:43:50.268Z,2.57
2018-07-09T16:46:17.923Z,2.27
2018-07-09T16:48:45.532Z,2.00
2018-07-09T16:51:13.193Z,2.73
2018-07-09T16:53:40.816Z,2.80
2018-07-09T16:56:08.432Z,2.70
2018-07-09T16:58:36.032Z,2.30
2018-07-09T17:01:03.733Z,2.37
2018-07-09T17:03:31.335Z,2.73
2018-07-09T17:05:58.940Z,2.50
2018-07-09T17:08:26.684Z,2.67
2018-07-09T17:10:54.275Z,3.07
2018-07-09T17:13:21.855Z,2.43
2018-07-09T17:15:49.883Z,2.70
2018-07-09T17:18:17.700Z,2.67
2018-07-09T17:20:45.544Z,2.47
2018-07-09T17:23:13.168Z,2.60
2018-07-09T17:25:41.811Z,2.30
2018-07-09T17:28:09.424Z,2.47
2018-07-09T17:30:36.983Z,3.63
2018-07-09T17:33:04.608Z,4.50
2018-07-09T17:35:32.244Z,2.70
2018-07-09T17:37:59.856Z,2.80
2018-07-09T17:40:27.592Z,3.30
2018-07-09T17:42:55.364Z,5.00
2018-07-09T17:45:23.033Z,2.47
2018-07-09T17:47:50.952Z,3.13
2018-07-09T17:50:18.544Z,3.10
2018-07-09T17:52:46.232Z,3.50
2018-07-09T17:55:14.332Z,3.37
2018-07-09T17:57:41.939Z,2.70
2018-07-09T18:00:09.699Z,2.60
2018-07-09T18:02:37.359Z,2.47
2018-07-09T18:05:05.175Z,2.63
2018-07-09T18:07:33.552Z,2.67
2018-07-09T18:10:01.244Z,3.30
2018-07-09T18:12:29.134Z,2.77
2018-07-09T18:14:56.775Z,2.67
2018-07-09T18:17:24.394Z,2.63
2018-07-09T18:19:52.064Z,2.90
2018-07-09T18:22:19.826Z,2.83
2018-07-09T18:24:47.400Z,3.27
2018-07-09T18:27:14.994Z,2.30
2018-07-09T18:29:42.683Z,2.53
2018-07-09T18:32:10.491Z,3.10
2018-07-09T18:34:38.415Z,2.80
2018-07-09T18:37:06.777Z,2.60
2018-07-09T18:39:35.936Z,2.27
2018-07-09T18:42:06.185Z,3.20
2018-07-09T18:44:35.330Z,2.70
2018-07-09T18:47:04.236Z,2.30
2018-07-09T18:49:33.516Z,3.40
2018-07-09T18:52:02.418Z,2.70
2018-07-09T18:54:31.916Z,4.00
2018-07-09T18:57:01.056Z,2.37
2018-07-09T18:59:29.655Z,2.77
2018-07-09T19:01:59.215Z,2.80
2018-07-09T19:04:29.302Z,2.40
2018-07-09T19:07:03.994Z,2.30
2018-07-09T19:09:41.414Z,3.17
2018-07-09T19:12:12.855Z,3.43
2018-07-09T19:14:45.598Z,3.03
2018-07-09T19:18:28.859Z,2.63
2018-07-09T19:21:37.029Z,2.50
2018-07-09T19:24:07.955Z,3.00
2018-07-09T19:26:36.677Z,2.60
2018-07-09T19:29:04.458Z,2.80
2018-07-09T19:31:32.278Z,2.90
2018-07-09T19:33:59.987Z,2.93
2018-07-09T19:36:27.381Z,2.50
2018-07-09T19:38:54.404Z,2.43
2018-07-09T19:41:21.652Z,3.23
2018-07-09T19:43:48.663Z,3.90
2018-07-09T19:46:16.163Z,2.70
2018-07-09T19:48:42.783Z,2.73
2018-07-09T19:51:09.363Z,2.53
2018-07-09T19:53:35.918Z,2.07
2018-07-09T19:56:02.407Z,2.40
2018-07-09T19:58:28.934Z,2.50
2018-07-09T20:00:55.633Z,2.20
2018-07-09T20:03:22.122Z,2.57
2018-07-09T20:05:48.603Z,2.70
2018-07-09T20:08:15.235Z,2.20
2018-07-09T20:10:47.429Z,2.20
2018-07-09T20:13:19.682Z,2.90
2018-07-09T20:15:51.921Z,2.70
2018-07-09T20:18:18.561Z,2.63
2018-07-09T20:20:45.074Z,2.53
2018-07-09T20:23:11.612Z,2.00
2018-07-09T20:25:38.221Z,2.60
2018-07-09T20:28:04.802Z,2.73
2018-07-09T20:30:31.381Z,2.90
2018-07-09T20:32:57.817Z,3.40
2018-07-09T20:35:25.355Z,2.97
2018-07-09T20:37:51.899Z,3.70
2018-07-09T20:40:19.696Z,3.33
2018-07-09T20:42:46.190Z,3.77
2018-07-09T20:45:12.651Z,3.50
2018-07-09T20:47:39.223Z,3.93
2018-07-09T20:50:06.168Z,3.67
2018-07-09T20:52:33.404Z,2.60
2018-07-09T20:54:59.944Z,2.70
2018-07-09T20:57:26.432Z,2.27
2018-07-09T20:59:52.930Z,2.47
2018-07-09T21:02:19.429Z,1.77
2018-07-09T21:04:45.933Z,2.30
2018-07-09T21:07:12.370Z,2.13
2018-07-09T21:09:38.905Z,2.00
2018-07-09T21:12:06.806Z,2.13
2018-07-09T21:14:33.965Z,2.70
2018-07-09T21:17:00.807Z,2.30
2018-07-09T21:19:27.352Z,2.00
2018-07-09T21:21:53.914Z,1.70
2018-07-09T21:24:20.338Z,2.47
2018-07-09T21:26:46.840Z,2.03
2018-07-09T21:29:13.352Z,2.40
2018-07-09T21:31:39.816Z,2.00
2018-07-09T21:34:06.321Z,2.47
2018-07-09T21:36:32.783Z,2.47
2018-07-09T21:38:59.319Z,2.63
2018-07-09T21:41:25.771Z,2.10
2018-07-09T21:43:52.244Z,2.50
2018-07-09T21:46:18.680Z,2.60
2018-07-09T21:48:45.244Z,3.00
2018-07-09T21:51:11.649Z,3.13
2018-07-09T21:53:38.277Z,2.67
2018-07-09T21:56:04.784Z,2.50
2018-07-09T21:58:31.244Z,2.80
2018-07-09T22:00:57.681Z,2.33
2018-07-09T22:03:24.141Z,2.20
2018-07-09T22:05:50.663Z,2.40
2018-07-09T22:08:17.226Z,2.47
2018-07-09T22:10:43.747Z,2.90
2018-07-09T22:13:10.219Z,2.03
2018-07-09T22:15:36.688Z,2.23
2018-07-09T22:18:03.266Z,2.27
2018-07-09T22:20:29.729Z,2.93
2018-07-09T22:22:56.585Z,2.37
2018-07-09T22:25:23.085Z,2.30
2018-07-09T22:27:49.492Z,2.20
2018-07-09T22:30:26.417Z,1.70
2018-07-09T22:32:54.065Z,2.00
2018-07-09T22:35:21.741Z,2.53
2018-07-09T22:37:49.212Z,2.23
2018-07-09T22:40:16.667Z,2.23
2018-07-09T22:42:44.143Z,2.50
2018-07-09T22:45:11.788Z,2.30
2018-07-09T22:47:39.317Z,2.50
2018-07-09T22:50:06.751Z,2.97
2018-07-09T22:52:34.221Z,2.63
2018-07-09T22:55:13.135Z,2.70
2018-07-09T22:57:40.648Z,2.67
2018-07-09T23:00:08.541Z,3.00
2018-07-09T23:02:35.971Z,2.53
2018-07-09T23:05:03.642Z,2.80
2018-07-09T23:07:34.796Z,3.10
2018-07-09T23:10:13.681Z,2.90
2018-07-09T23:17:02.403Z,3.20
2018-07-09T23:22:14.564Z,3.00
2018-07-09T23:24:41.054Z,2.53
2018-07-09T23:27:07.833Z,3.03
2018-07-09T23:29:34.289Z,3.47
2018-07-09T23:32:00.793Z,2.80
2018-07-09T23:34:27.383Z,2.73
2018-07-09T23:36:54.204Z,2.80
2018-07-09T23:39:20.739Z,2.57
2018-07-09T23:41:47.601Z,3.00
2018-07-09T23:44:14.015Z,2.47
2018-07-09T23:46:40.483Z,4.97
2018-07-09T23:49:06.907Z,2.83
2018-07-09T23:51:33.338Z,3.30
2018-07-09T23:53:59.825Z,3.87
2018-07-09T23:59:41.395Z,3.00
